sensor_id;sensor_type;location;lat;lon;timestamp;temperature;humidity
54614;DHT22;40514;52.758;6.360;2022-11-30T00:00:24;7.50;99.90
54614;DHT22;40514;52.758;6.360;2022-11-30T00:02:50;7.40;99.90
54614;DHT22;40514;52.758;6.360;2022-11-30T00:05:18;7.40;99.90
54614;DHT22;40514;52.758;6.360;2022-11-30T00:07:44;7.30;99.90
54614;DHT22;40514;52.758;6.360;2022-11-30T00:10:10;7.20;99.90
54614;DHT22;40514;52.758;6.360;2022-11-30T00:12:35;7.10;99.90
54614;DHT22;40514;52.758;6.360;2022-11-30T00:15:01;7.00;99.90
54614;DHT22;40514;52.758;6.360;2022-11-30T00:17:26;6.90;99.90
54614;DHT22;40514;52.758;6.360;2022-11-30T00:19:52;6.80;99.90
54614;DHT22;40514;52.758;6.360;2022-11-30T00:22:17;6.80;99.90
54614;DHT22;40514;52.758;6.360;2022-11-30T00:24:43;6.70;99.90
54614;DHT22;40514;52.758;6.360;2022-11-30T00:27:08;6.70;99.90
54614;DHT22;40514;52.758;6.360;2022-11-30T00:29:34;6.70;99.90
54614;DHT22;40514;52.758;6.360;2022-11-30T00:31:59;6.60;99.90
54614;DHT22;40514;52.758;6.360;2022-11-30T00:34:25;6.50;99.90
54614;DHT22;40514;52.758;6.360;2022-11-30T00:36:50;6.50;99.90
54614;DHT22;40514;52.758;6.360;2022-11-30T00:39:16;6.50;99.90
54614;DHT22;40514;52.758;6.360;2022-11-30T00:41:41;6.40;99.90
54614;DHT22;40514;52.758;6.360;2022-11-30T00:44:07;6.30;99.90
54614;DHT22;40514;52.758;6.360;2022-11-30T00:46:33;6.20;99.90
54614;DHT22;40514;52.758;6.360;2022-11-30T00:48:59;6.10;99.90
54614;DHT22;40514;52.758;6.360;2022-11-30T00:51:24;6.10;99.90
54614;DHT22;40514;52.758;6.360;2022-11-30T00:53:50;6.10;99.90
54614;DHT22;40514;52.758;6.360;2022-11-30T00:56:15;6.10;99.90
54614;DHT22;40514;52.758;6.360;2022-11-30T00:58:41;6.20;99.90
54614;DHT22;40514;52.758;6.360;2022-11-30T01:01:07;6.20;99.90
54614;DHT22;40514;52.758;6.360;2022-11-30T01:03:33;6.20;99.90
54614;DHT22;40514;52.758;6.360;2022-11-30T01:06:07;6.10;99.90
54614;DHT22;40514;52.758;6.360;2022-11-30T01:08:34;6.10;99.90
54614;DHT22;40514;52.758;6.360;2022-11-30T01:11:09;6.10;99.90
54614;DHT22;40514;52.758;6.360;2022-11-30T01:13:36;6.10;99.90
54614;DHT22;40514;52.758;6.360;2022-11-30T01:16:15;6.10;99.90
54614;DHT22;40514;52.758;6.360;2022-11-30T01:18:41;6.10;99.90
54614;DHT22;40514;52.758;6.360;2022-11-30T01:21:09;6.00;99.90
54614;DHT22;40514;52.758;6.360;2022-11-30T01:23:35;6.00;99.90
54614;DHT22;40514;52.758;6.360;2022-11-30T01:26:01;6.00;99.90
54614;DHT22;40514;52.758;6.360;2022-11-30T01:28:26;6.00;99.90
54614;DHT22;40514;52.758;6.360;2022-11-30T01:30:56;6.00;99.90
54614;DHT22;40514;52.758;6.360;2022-11-30T01:33:22;6.00;99.90
54614;DHT22;40514;52.758;6.360;2022-11-30T01:35:47;6.00;99.90
54614;DHT22;40514;52.758;6.360;2022-11-30T01:38:13;6.00;99.90
54614;DHT22;40514;52.758;6.360;2022-11-30T01:40:39;6.00;99.90
54614;DHT22;40514;52.758;6.360;2022-11-30T01:43:10;6.10;99.90
54614;DHT22;40514;52.758;6.360;2022-11-30T01:45:35;6.00;99.90
54614;DHT22;40514;52.758;6.360;2022-11-30T01:48:01;6.10;99.90
54614;DHT22;40514;52.758;6.360;2022-11-30T01:50:30;6.10;99.90
54614;DHT22;40514;52.758;6.360;2022-11-30T01:52:58;6.10;99.90
54614;DHT22;40514;52.758;6.360;2022-11-30T01:55:35;6.20;99.90
54614;DHT22;40514;52.758;6.360;2022-11-30T02:00:32;6.20;99.90
54614;DHT22;40514;52.758;6.360;2022-11-30T02:03:29;6.30;99.90
54614;DHT22;40514;52.758;6.360;2022-11-30T02:05:56;6.30;99.90
54614;DHT22;40514;52.758;6.360;2022-11-30T02:08:22;6.30;99.90
54614;DHT22;40514;52.758;6.360;2022-11-30T02:10:53;6.30;99.90
54614;DHT22;40514;52.758;6.360;2022-11-30T02:19:02;6.40;99.90
54614;DHT22;40514;52.758;6.360;2022-11-30T02:21:51;6.50;99.90
54614;DHT22;40514;52.758;6.360;2022-11-30T02:27:22;6.50;99.90
54614;DHT22;40514;52.758;6.360;2022-11-30T02:29:53;6.50;99.90
54614;DHT22;40514;52.758;6.360;2022-11-30T02:32:26;6.50;99.90
54614;DHT22;40514;52.758;6.360;2022-11-30T02:34:54;6.60;99.90
54614;DHT22;40514;52.758;6.360;2022-11-30T02:37:21;6.60;99.90
54614;DHT22;40514;52.758;6.360;2022-11-30T02:39:48;6.60;99.90
54614;DHT22;40514;52.758;6.360;2022-11-30T02:42:13;6.60;99.90
54614;DHT22;40514;52.758;6.360;2022-11-30T02:44:41;6.60;99.90
54614;DHT22;40514;52.758;6.360;2022-11-30T02:47:17;6.60;99.90
54614;DHT22;40514;52.758;6.360;2022-11-30T02:49:47;6.70;99.90
54614;DHT22;40514;52.758;6.360;2022-11-30T02:52:14;6.70;99.90
54614;DHT22;40514;52.758;6.360;2022-11-30T02:54:40;6.60;99.90
54614;DHT22;40514;52.758;6.360;2022-11-30T02:57:06;6.70;99.90
54614;DHT22;40514;52.758;6.360;2022-11-30T02:59:32;6.70;99.90
54614;DHT22;40514;52.758;6.360;2022-11-30T03:01:58;6.70;99.90
54614;DHT22;40514;52.758;6.360;2022-11-30T03:04:23;6.70;99.90
54614;DHT22;40514;52.758;6.360;2022-11-30T03:06:49;6.70;99.90
54614;DHT22;40514;52.758;6.360;2022-11-30T03:09:14;6.70;99.90
54614;DHT22;40514;52.758;6.360;2022-11-30T03:11:40;6.80;99.90
54614;DHT22;40514;52.758;6.360;2022-11-30T03:14:05;6.80;99.90
54614;DHT22;40514;52.758;6.360;2022-11-30T03:16:31;6.80;99.90
54614;DHT22;40514;52.758;6.360;2022-11-30T03:18:57;6.80;99.90
54614;DHT22;40514;52.758;6.360;2022-11-30T03:21:22;6.80;99.90
54614;DHT22;40514;52.758;6.360;2022-11-30T03:23:48;6.80;99.90
54614;DHT22;40514;52.758;6.360;2022-11-30T03:26:13;6.70;99.90
54614;DHT22;40514;52.758;6.360;2022-11-30T03:28:39;6.80;99.90
54614;DHT22;40514;52.758;6.360;2022-11-30T03:31:04;6.80;99.90
54614;DHT22;40514;52.758;6.360;2022-11-30T03:33:30;6.80;99.90
54614;DHT22;40514;52.758;6.360;2022-11-30T03:36:00;6.80;99.90
54614;DHT22;40514;52.758;6.360;2022-11-30T03:38:26;6.80;99.90
54614;DHT22;40514;52.758;6.360;2022-11-30T03:41:05;6.70;99.90
54614;DHT22;40514;52.758;6.360;2022-11-30T03:43:31;6.70;99.90
54614;DHT22;40514;52.758;6.360;2022-11-30T03:45:57;6.70;99.90
54614;DHT22;40514;52.758;6.360;2022-11-30T03:48:23;6.70;99.90
54614;DHT22;40514;52.758;6.360;2022-11-30T03:50:49;6.60;99.90
54614;DHT22;40514;52.758;6.360;2022-11-30T03:53:19;6.60;99.90
54614;DHT22;40514;52.758;6.360;2022-11-30T03:55:45;6.50;99.90
54614;DHT22;40514;52.758;6.360;2022-11-30T03:58:11;6.60;99.90
54614;DHT22;40514;52.758;6.360;2022-11-30T04:00:37;6.60;99.90
54614;DHT22;40514;52.758;6.360;2022-11-30T04:03:03;6.60;99.90
54614;DHT22;40514;52.758;6.360;2022-11-30T04:05:29;6.60;99.90
54614;DHT22;40514;52.758;6.360;2022-11-30T04:07:55;6.60;99.90
54614;DHT22;40514;52.758;6.360;2022-11-30T04:10:20;6.60;99.90
54614;DHT22;40514;52.758;6.360;2022-11-30T04:12:48;6.60;99.90
54614;DHT22;40514;52.758;6.360;2022-11-30T04:15:13;6.60;99.90
54614;DHT22;40514;52.758;6.360;2022-11-30T04:17:39;6.70;99.90
54614;DHT22;40514;52.758;6.360;2022-11-30T04:20:05;6.70;99.90
54614;DHT22;40514;52.758;6.360;2022-11-30T04:22:31;6.70;99.90
54614;DHT22;40514;52.758;6.360;2022-11-30T04:24:58;6.70;99.90
54614;DHT22;40514;52.758;6.360;2022-11-30T04:27:23;6.70;99.90
54614;DHT22;40514;52.758;6.360;2022-11-30T04:29:49;6.70;99.90
54614;DHT22;40514;52.758;6.360;2022-11-30T04:32:14;6.70;99.90
54614;DHT22;40514;52.758;6.360;2022-11-30T04:34:40;6.70;99.90
54614;DHT22;40514;52.758;6.360;2022-11-30T04:37:05;6.70;99.90
54614;DHT22;40514;52.758;6.360;2022-11-30T04:39:33;6.70;99.90
54614;DHT22;40514;52.758;6.360;2022-11-30T04:41:58;6.70;99.90
54614;DHT22;40514;52.758;6.360;2022-11-30T04:44:24;6.60;99.90
54614;DHT22;40514;52.758;6.360;2022-11-30T04:46:49;6.60;99.90
54614;DHT22;40514;52.758;6.360;2022-11-30T04:49:15;6.60;99.90
54614;DHT22;40514;52.758;6.360;2022-11-30T04:51:40;6.70;99.90
54614;DHT22;40514;52.758;6.360;2022-11-30T04:54:05;6.60;99.90
54614;DHT22;40514;52.758;6.360;2022-11-30T04:56:31;6.50;99.90
54614;DHT22;40514;52.758;6.360;2022-11-30T04:58:56;6.60;99.90
54614;DHT22;40514;52.758;6.360;2022-11-30T05:01:22;6.60;99.90
54614;DHT22;40514;52.758;6.360;2022-11-30T05:03:48;6.60;99.90
54614;DHT22;40514;52.758;6.360;2022-11-30T05:06:13;6.60;99.90
54614;DHT22;40514;52.758;6.360;2022-11-30T05:08:39;6.70;99.90
54614;DHT22;40514;52.758;6.360;2022-11-30T05:11:04;6.70;99.90
54614;DHT22;40514;52.758;6.360;2022-11-30T05:13:30;6.60;99.90
54614;DHT22;40514;52.758;6.360;2022-11-30T05:15:55;6.70;99.90
54614;DHT22;40514;52.758;6.360;2022-11-30T05:18:21;6.70;99.90
54614;DHT22;40514;52.758;6.360;2022-11-30T05:20:48;6.70;99.90
54614;DHT22;40514;52.758;6.360;2022-11-30T05:23:15;6.70;99.90
54614;DHT22;40514;52.758;6.360;2022-11-30T05:25:41;6.70;99.90
54614;DHT22;40514;52.758;6.360;2022-11-30T05:28:07;6.80;99.90
54614;DHT22;40514;52.758;6.360;2022-11-30T05:30:32;6.80;99.90
54614;DHT22;40514;52.758;6.360;2022-11-30T05:32:58;6.80;99.90
54614;DHT22;40514;52.758;6.360;2022-11-30T05:35:23;6.80;99.90
54614;DHT22;40514;52.758;6.360;2022-11-30T05:37:49;6.80;99.90
54614;DHT22;40514;52.758;6.360;2022-11-30T05:40:15;6.80;99.90
54614;DHT22;40514;52.758;6.360;2022-11-30T05:42:40;6.80;99.90
54614;DHT22;40514;52.758;6.360;2022-11-30T05:45:06;6.80;99.90
54614;DHT22;40514;52.758;6.360;2022-11-30T05:47:32;6.80;99.90
54614;DHT22;40514;52.758;6.360;2022-11-30T05:49:57;6.80;99.90
54614;DHT22;40514;52.758;6.360;2022-11-30T05:52:23;6.80;99.90
54614;DHT22;40514;52.758;6.360;2022-11-30T05:54:48;6.80;99.90
54614;DHT22;40514;52.758;6.360;2022-11-30T05:57:14;6.90;99.90
54614;DHT22;40514;52.758;6.360;2022-11-30T05:59:39;6.90;99.90
54614;DHT22;40514;52.758;6.360;2022-11-30T06:02:05;6.80;99.90
54614;DHT22;40514;52.758;6.360;2022-11-30T06:04:32;6.80;99.90
54614;DHT22;40514;52.758;6.360;2022-11-30T06:06:57;6.80;99.90
54614;DHT22;40514;52.758;6.360;2022-11-30T06:09:23;6.80;99.90
54614;DHT22;40514;52.758;6.360;2022-11-30T06:11:49;6.80;99.90
54614;DHT22;40514;52.758;6.360;2022-11-30T06:14:14;6.90;99.90
54614;DHT22;40514;52.758;6.360;2022-11-30T06:16:40;6.90;99.90
54614;DHT22;40514;52.758;6.360;2022-11-30T06:19:06;6.90;99.90
54614;DHT22;40514;52.758;6.360;2022-11-30T06:21:31;6.90;99.90
54614;DHT22;40514;52.758;6.360;2022-11-30T06:23:57;6.80;99.90
54614;DHT22;40514;52.758;6.360;2022-11-30T06:26:22;6.80;99.90
54614;DHT22;40514;52.758;6.360;2022-11-30T06:28:48;6.80;99.90
54614;DHT22;40514;52.758;6.360;2022-11-30T06:31:14;6.80;99.90
54614;DHT22;40514;52.758;6.360;2022-11-30T06:33:39;6.80;99.90
54614;DHT22;40514;52.758;6.360;2022-11-30T06:36:05;6.80;99.90
54614;DHT22;40514;52.758;6.360;2022-11-30T06:38:31;6.80;99.90
54614;DHT22;40514;52.758;6.360;2022-11-30T06:41:07;6.70;99.90
54614;DHT22;40514;52.758;6.360;2022-11-30T06:43:37;6.80;99.90
54614;DHT22;40514;52.758;6.360;2022-11-30T06:46:04;6.80;99.90
54614;DHT22;40514;52.758;6.360;2022-11-30T06:48:30;6.80;99.90
54614;DHT22;40514;52.758;6.360;2022-11-30T06:50:56;6.80;99.90
54614;DHT22;40514;52.758;6.360;2022-11-30T06:53:22;6.80;99.90
54614;DHT22;40514;52.758;6.360;2022-11-30T06:55:48;6.80;99.90
54614;DHT22;40514;52.758;6.360;2022-11-30T06:58:13;6.80;99.90
54614;DHT22;40514;52.758;6.360;2022-11-30T07:00:39;6.70;99.90
54614;DHT22;40514;52.758;6.360;2022-11-30T07:03:05;6.70;99.90
54614;DHT22;40514;52.758;6.360;2022-11-30T07:05:40;6.70;99.90
54614;DHT22;40514;52.758;6.360;2022-11-30T07:08:06;6.70;99.90
54614;DHT22;40514;52.758;6.360;2022-11-30T07:10:31;6.70;99.90
54614;DHT22;40514;52.758;6.360;2022-11-30T07:12:57;6.70;99.90
54614;DHT22;40514;52.758;6.360;2022-11-30T07:15:22;6.70;99.90
54614;DHT22;40514;52.758;6.360;2022-11-30T07:17:48;6.80;99.90
54614;DHT22;40514;52.758;6.360;2022-11-30T07:20:13;6.80;99.90
54614;DHT22;40514;52.758;6.360;2022-11-30T07:22:39;6.80;99.90
54614;DHT22;40514;52.758;6.360;2022-11-30T07:25:05;6.80;99.90
54614;DHT22;40514;52.758;6.360;2022-11-30T07:27:49;6.80;99.90
54614;DHT22;40514;52.758;6.360;2022-11-30T07:30:15;6.80;99.90
54614;DHT22;40514;52.758;6.360;2022-11-30T07:32:40;6.80;99.90
54614;DHT22;40514;52.758;6.360;2022-11-30T07:35:06;6.80;99.90
54614;DHT22;40514;52.758;6.360;2022-11-30T07:37:32;6.90;99.90
54614;DHT22;40514;52.758;6.360;2022-11-30T07:39:57;6.80;99.90
54614;DHT22;40514;52.758;6.360;2022-11-30T07:42:23;6.90;99.90
54614;DHT22;40514;52.758;6.360;2022-11-30T07:44:48;6.90;99.90
54614;DHT22;40514;52.758;6.360;2022-11-30T07:47:15;6.90;99.90
54614;DHT22;40514;52.758;6.360;2022-11-30T07:49:40;6.90;99.90
54614;DHT22;40514;52.758;6.360;2022-11-30T07:52:06;6.90;99.90
54614;DHT22;40514;52.758;6.360;2022-11-30T07:54:32;6.90;99.90
54614;DHT22;40514;52.758;6.360;2022-11-30T07:56:58;6.90;99.90
54614;DHT22;40514;52.758;6.360;2022-11-30T07:59:24;6.90;99.90
54614;DHT22;40514;52.758;6.360;2022-11-30T08:01:49;7.00;99.90
54614;DHT22;40514;52.758;6.360;2022-11-30T08:04:15;7.00;99.90
54614;DHT22;40514;52.758;6.360;2022-11-30T08:06:40;6.90;99.90
54614;DHT22;40514;52.758;6.360;2022-11-30T08:09:06;7.00;99.90
54614;DHT22;40514;52.758;6.360;2022-11-30T08:11:33;7.00;99.90
54614;DHT22;40514;52.758;6.360;2022-11-30T08:14:00;7.00;99.90
54614;DHT22;40514;52.758;6.360;2022-11-30T08:16:27;7.00;99.90
54614;DHT22;40514;52.758;6.360;2022-11-30T08:18:57;7.00;99.90
54614;DHT22;40514;52.758;6.360;2022-11-30T08:21:23;7.10;99.90
54614;DHT22;40514;52.758;6.360;2022-11-30T08:23:51;7.10;99.90
54614;DHT22;40514;52.758;6.360;2022-11-30T08:26:21;7.20;99.90
54614;DHT22;40514;52.758;6.360;2022-11-30T08:28:49;7.10;99.90
54614;DHT22;40514;52.758;6.360;2022-11-30T08:31:18;7.20;99.90
54614;DHT22;40514;52.758;6.360;2022-11-30T08:33:44;7.20;99.90
54614;DHT22;40514;52.758;6.360;2022-11-30T08:36:10;7.20;99.90
54614;DHT22;40514;52.758;6.360;2022-11-30T08:38:38;7.30;99.90
54614;DHT22;40514;52.758;6.360;2022-11-30T08:41:04;7.30;99.90
54614;DHT22;40514;52.758;6.360;2022-11-30T08:43:30;7.30;99.90
54614;DHT22;40514;52.758;6.360;2022-11-30T08:45:56;7.30;99.90
54614;DHT22;40514;52.758;6.360;2022-11-30T08:48:22;7.40;99.90
54614;DHT22;40514;52.758;6.360;2022-11-30T08:50:47;7.40;99.90
54614;DHT22;40514;52.758;6.360;2022-11-30T08:53:13;7.30;99.90
54614;DHT22;40514;52.758;6.360;2022-11-30T08:55:38;7.30;99.90
54614;DHT22;40514;52.758;6.360;2022-11-30T08:58:04;7.30;99.90
54614;DHT22;40514;52.758;6.360;2022-11-30T09:00:30;7.30;99.90
54614;DHT22;40514;52.758;6.360;2022-11-30T09:02:55;7.30;99.90
54614;DHT22;40514;52.758;6.360;2022-11-30T09:05:21;7.30;99.90
54614;DHT22;40514;52.758;6.360;2022-11-30T09:07:46;7.40;99.90
54614;DHT22;40514;52.758;6.360;2022-11-30T09:10:12;7.40;99.90
54614;DHT22;40514;52.758;6.360;2022-11-30T09:12:39;7.40;99.90
54614;DHT22;40514;52.758;6.360;2022-11-30T09:15:06;7.50;99.90
54614;DHT22;40514;52.758;6.360;2022-11-30T09:17:32;7.40;99.90
54614;DHT22;40514;52.758;6.360;2022-11-30T09:19:58;7.50;99.90
54614;DHT22;40514;52.758;6.360;2022-11-30T09:22:24;7.40;99.90
54614;DHT22;40514;52.758;6.360;2022-11-30T09:24:50;7.50;99.90
54614;DHT22;40514;52.758;6.360;2022-11-30T09:27:15;7.40;99.90
54614;DHT22;40514;52.758;6.360;2022-11-30T09:29:41;7.40;99.90
54614;DHT22;40514;52.758;6.360;2022-11-30T09:32:07;7.40;99.90
54614;DHT22;40514;52.758;6.360;2022-11-30T09:34:33;7.40;99.90
54614;DHT22;40514;52.758;6.360;2022-11-30T09:36:58;7.40;99.90
54614;DHT22;40514;52.758;6.360;2022-11-30T09:39:24;7.50;99.90
54614;DHT22;40514;52.758;6.360;2022-11-30T09:42:14;7.50;99.90
54614;DHT22;40514;52.758;6.360;2022-11-30T09:44:50;7.50;99.90
54614;DHT22;40514;52.758;6.360;2022-11-30T09:47:32;7.60;99.90
54614;DHT22;40514;52.758;6.360;2022-11-30T09:50:13;7.60;99.90
54614;DHT22;40514;52.758;6.360;2022-11-30T09:52:42;7.60;99.90
54614;DHT22;40514;52.758;6.360;2022-11-30T09:55:10;7.60;99.90
54614;DHT22;40514;52.758;6.360;2022-11-30T09:57:41;7.60;99.90
54614;DHT22;40514;52.758;6.360;2022-11-30T10:00:21;7.70;99.90
54614;DHT22;40514;52.758;6.360;2022-11-30T10:02:55;7.80;99.90
54614;DHT22;40514;52.758;6.360;2022-11-30T10:05:41;7.80;99.90
54614;DHT22;40514;52.758;6.360;2022-11-30T10:08:38;7.80;99.90
54614;DHT22;40514;52.758;6.360;2022-11-30T10:14:21;7.80;99.90
54614;DHT22;40514;52.758;6.360;2022-11-30T10:22:38;7.80;99.90
54614;DHT22;40514;52.758;6.360;2022-11-30T10:25:22;7.80;99.90
54614;DHT22;40514;52.758;6.360;2022-11-30T10:27:53;7.80;99.90
54614;DHT22;40514;52.758;6.360;2022-11-30T10:30:25;7.90;99.90
54614;DHT22;40514;52.758;6.360;2022-11-30T10:32:55;7.90;99.90
54614;DHT22;40514;52.758;6.360;2022-11-30T10:35:47;7.90;99.90
54614;DHT22;40514;52.758;6.360;2022-11-30T10:38:18;7.90;99.90
54614;DHT22;40514;52.758;6.360;2022-11-30T10:43:34;8.00;99.90
54614;DHT22;40514;52.758;6.360;2022-11-30T10:46:03;8.00;99.90
54614;DHT22;40514;52.758;6.360;2022-11-30T10:48:42;8.00;99.90
54614;DHT22;40514;52.758;6.360;2022-11-30T10:51:11;8.00;99.90
54614;DHT22;40514;52.758;6.360;2022-11-30T10:53:36;8.00;99.90
54614;DHT22;40514;52.758;6.360;2022-11-30T10:56:11;8.00;99.90
54614;DHT22;40514;52.758;6.360;2022-11-30T11:01:34;8.10;99.90
54614;DHT22;40514;52.758;6.360;2022-11-30T11:06:33;8.10;99.90
54614;DHT22;40514;52.758;6.360;2022-11-30T11:09:38;8.10;99.90
54614;DHT22;40514;52.758;6.360;2022-11-30T11:12:08;8.10;99.90
54614;DHT22;40514;52.758;6.360;2022-11-30T11:14:38;8.10;99.90
54614;DHT22;40514;52.758;6.360;2022-11-30T11:17:20;8.10;99.90
54614;DHT22;40514;52.758;6.360;2022-11-30T11:19:47;8.10;99.90
54614;DHT22;40514;52.758;6.360;2022-11-30T11:22:28;8.10;99.90
54614;DHT22;40514;52.758;6.360;2022-11-30T11:25:10;8.10;99.90
54614;DHT22;40514;52.758;6.360;2022-11-30T11:27:40;8.10;99.90
54614;DHT22;40514;52.758;6.360;2022-11-30T11:30:16;8.10;99.90
54614;DHT22;40514;52.758;6.360;2022-11-30T11:32:57;8.10;99.90
54614;DHT22;40514;52.758;6.360;2022-11-30T11:35:42;8.10;99.90
54614;DHT22;40514;52.758;6.360;2022-11-30T11:38:21;8.10;99.90
54614;DHT22;40514;52.758;6.360;2022-11-30T11:41:20;8.10;99.90
54614;DHT22;40514;52.758;6.360;2022-11-30T11:44:04;8.10;99.90
54614;DHT22;40514;52.758;6.360;2022-11-30T11:47:21;8.10;99.90
54614;DHT22;40514;52.758;6.360;2022-11-30T11:49:42;8.10;99.90
54614;DHT22;40514;52.758;6.360;2022-11-30T11:54:40;8.10;99.90
54614;DHT22;40514;52.758;6.360;2022-11-30T11:57:13;8.10;99.90
54614;DHT22;40514;52.758;6.360;2022-11-30T12:00:14;8.20;99.90
54614;DHT22;40514;52.758;6.360;2022-11-30T12:05:20;8.30;99.90
54614;DHT22;40514;52.758;6.360;2022-11-30T12:10:31;8.20;99.90
54614;DHT22;40514;52.758;6.360;2022-11-30T12:12:58;8.20;99.90
54614;DHT22;40514;52.758;6.360;2022-11-30T12:15:39;8.20;99.90
54614;DHT22;40514;52.758;6.360;2022-11-30T12:18:22;8.20;99.90
54614;DHT22;40514;52.758;6.360;2022-11-30T12:27:12;8.20;99.90
54614;DHT22;40514;52.758;6.360;2022-11-30T12:30:14;8.20;99.90
54614;DHT22;40514;52.758;6.360;2022-11-30T12:38:44;8.10;99.90
54614;DHT22;40514;52.758;6.360;2022-11-30T12:41:42;8.10;99.90
54614;DHT22;40514;52.758;6.360;2022-11-30T12:49:53;8.00;99.90
54614;DHT22;40514;52.758;6.360;2022-11-30T12:52:43;8.00;99.90
54614;DHT22;40514;52.758;6.360;2022-11-30T12:58:27;8.10;99.90
54614;DHT22;40514;52.758;6.360;2022-11-30T13:04:14;8.10;99.90
54614;DHT22;40514;52.758;6.360;2022-11-30T13:06:47;8.10;99.90
54614;DHT22;40514;52.758;6.360;2022-11-30T13:09:33;8.10;99.90
54614;DHT22;40514;52.758;6.360;2022-11-30T13:12:06;8.10;99.90
54614;DHT22;40514;52.758;6.360;2022-11-30T13:14:35;8.10;99.90
54614;DHT22;40514;52.758;6.360;2022-11-30T13:17:04;8.10;99.90
54614;DHT22;40514;52.758;6.360;2022-11-30T13:22:08;8.20;99.90
54614;DHT22;40514;52.758;6.360;2022-11-30T13:24:39;8.00;99.90
54614;DHT22;40514;52.758;6.360;2022-11-30T13:27:29;8.20;99.90
54614;DHT22;40514;52.758;6.360;2022-11-30T13:30:19;8.30;99.90
54614;DHT22;40514;52.758;6.360;2022-11-30T13:32:48;8.20;99.90
54614;DHT22;40514;52.758;6.360;2022-11-30T13:38:19;8.20;99.90
54614;DHT22;40514;52.758;6.360;2022-11-30T13:43:22;8.20;99.90
54614;DHT22;40514;52.758;6.360;2022-11-30T13:45:48;8.20;99.90
54614;DHT22;40514;52.758;6.360;2022-11-30T13:48:37;8.20;99.90
54614;DHT22;40514;52.758;6.360;2022-11-30T13:51:03;8.20;99.90
54614;DHT22;40514;52.758;6.360;2022-11-30T13:53:31;8.10;99.90
54614;DHT22;40514;52.758;6.360;2022-11-30T14:01:48;8.10;99.90
54614;DHT22;40514;52.758;6.360;2022-11-30T14:14:57;8.10;99.90
54614;DHT22;40514;52.758;6.360;2022-11-30T14:17:26;8.10;99.90
54614;DHT22;40514;52.758;6.360;2022-11-30T14:20:13;8.10;99.90
54614;DHT22;40514;52.758;6.360;2022-11-30T14:22:40;8.10;99.90
54614;DHT22;40514;52.758;6.360;2022-11-30T14:25:16;8.00;99.90
54614;DHT22;40514;52.758;6.360;2022-11-30T14:27:43;8.00;99.90
54614;DHT22;40514;52.758;6.360;2022-11-30T14:30:20;8.00;99.90
54614;DHT22;40514;52.758;6.360;2022-11-30T14:33:00;8.00;99.90
54614;DHT22;40514;52.758;6.360;2022-11-30T14:35:31;8.00;99.90
54614;DHT22;40514;52.758;6.360;2022-11-30T14:37:58;8.00;99.90
54614;DHT22;40514;52.758;6.360;2022-11-30T14:40:27;8.00;99.90
54614;DHT22;40514;52.758;6.360;2022-11-30T14:42:59;8.00;99.90
54614;DHT22;40514;52.758;6.360;2022-11-30T14:45:28;8.00;99.90
54614;DHT22;40514;52.758;6.360;2022-11-30T14:48:06;8.00;99.90
54614;DHT22;40514;52.758;6.360;2022-11-30T14:50:33;8.00;99.90
54614;DHT22;40514;52.758;6.360;2022-11-30T14:56:21;7.90;99.90
54614;DHT22;40514;52.758;6.360;2022-11-30T15:01:41;7.90;99.90
54614;DHT22;40514;52.758;6.360;2022-11-30T15:04:13;7.80;99.90
54614;DHT22;40514;52.758;6.360;2022-11-30T15:06:41;7.80;99.90
54614;DHT22;40514;52.758;6.360;2022-11-30T15:09:14;7.80;99.90
54614;DHT22;40514;52.758;6.360;2022-11-30T15:11:42;7.90;99.90
54614;DHT22;40514;52.758;6.360;2022-11-30T15:14:10;7.80;99.90
54614;DHT22;40514;52.758;6.360;2022-11-30T15:16:36;7.70;99.90
54614;DHT22;40514;52.758;6.360;2022-11-30T15:19:27;7.70;99.90
54614;DHT22;40514;52.758;6.360;2022-11-30T15:21:54;7.70;99.90
54614;DHT22;40514;52.758;6.360;2022-11-30T15:24:20;7.70;99.90
54614;DHT22;40514;52.758;6.360;2022-11-30T15:27:12;7.60;99.90
54614;DHT22;40514;52.758;6.360;2022-11-30T15:29:42;7.60;99.90
54614;DHT22;40514;52.758;6.360;2022-11-30T15:32:20;7.60;99.90
54614;DHT22;40514;52.758;6.360;2022-11-30T15:34:53;7.60;99.90
54614;DHT22;40514;52.758;6.360;2022-11-30T15:37:22;7.60;99.90
54614;DHT22;40514;52.758;6.360;2022-11-30T15:39:57;7.60;99.90
54614;DHT22;40514;52.758;6.360;2022-11-30T15:47:53;7.60;99.90
54614;DHT22;40514;52.758;6.360;2022-11-30T15:52:53;7.60;99.90
54614;DHT22;40514;52.758;6.360;2022-11-30T15:55:39;7.50;99.90
54614;DHT22;40514;52.758;6.360;2022-11-30T15:58:32;7.60;99.90
54614;DHT22;40514;52.758;6.360;2022-11-30T16:01:15;7.60;99.90
54614;DHT22;40514;52.758;6.360;2022-11-30T16:06:22;7.60;99.90
54614;DHT22;40514;52.758;6.360;2022-11-30T16:08:49;7.60;99.90
54614;DHT22;40514;52.758;6.360;2022-11-30T16:11:15;7.60;99.90
54614;DHT22;40514;52.758;6.360;2022-11-30T16:13:42;7.50;99.90
54614;DHT22;40514;52.758;6.360;2022-11-30T16:16:21;7.50;99.90
54614;DHT22;40514;52.758;6.360;2022-11-30T16:18:48;7.50;99.90
54614;DHT22;40514;52.758;6.360;2022-11-30T16:21:17;7.50;99.90
54614;DHT22;40514;52.758;6.360;2022-11-30T16:23:44;7.40;99.90
54614;DHT22;40514;52.758;6.360;2022-11-30T16:26:12;7.40;99.90
54614;DHT22;40514;52.758;6.360;2022-11-30T16:28:38;7.40;99.90
54614;DHT22;40514;52.758;6.360;2022-11-30T16:31:03;7.40;99.90
54614;DHT22;40514;52.758;6.360;2022-11-30T16:33:29;7.40;99.90
54614;DHT22;40514;52.758;6.360;2022-11-30T16:36:05;7.40;99.90
54614;DHT22;40514;52.758;6.360;2022-11-30T16:38:32;7.40;99.90
54614;DHT22;40514;52.758;6.360;2022-11-30T16:41:18;7.40;99.90
54614;DHT22;40514;52.758;6.360;2022-11-30T16:43:45;7.40;99.90
54614;DHT22;40514;52.758;6.360;2022-11-30T16:46:15;7.40;99.90
54614;DHT22;40514;52.758;6.360;2022-11-30T16:48:41;7.40;99.90
54614;DHT22;40514;52.758;6.360;2022-11-30T16:51:33;7.30;99.90
54614;DHT22;40514;52.758;6.360;2022-11-30T16:54:00;7.40;99.90
54614;DHT22;40514;52.758;6.360;2022-11-30T16:56:26;7.40;99.90
54614;DHT22;40514;52.758;6.360;2022-11-30T16:58:53;7.30;99.90
54614;DHT22;40514;52.758;6.360;2022-11-30T17:01:31;7.30;99.90
54614;DHT22;40514;52.758;6.360;2022-11-30T17:03:58;7.40;99.90
54614;DHT22;40514;52.758;6.360;2022-11-30T17:06:24;7.40;99.90
54614;DHT22;40514;52.758;6.360;2022-11-30T17:09:00;7.30;99.90
54614;DHT22;40514;52.758;6.360;2022-11-30T17:11:32;7.30;99.90
54614;DHT22;40514;52.758;6.360;2022-11-30T17:13:58;7.30;99.90
54614;DHT22;40514;52.758;6.360;2022-11-30T17:16:24;7.30;99.90
54614;DHT22;40514;52.758;6.360;2022-11-30T17:18:50;7.30;99.90
54614;DHT22;40514;52.758;6.360;2022-11-30T17:21:19;7.30;99.90
54614;DHT22;40514;52.758;6.360;2022-11-30T17:23:46;7.30;99.90
54614;DHT22;40514;52.758;6.360;2022-11-30T17:26:11;7.30;99.90
54614;DHT22;40514;52.758;6.360;2022-11-30T17:28:37;7.30;99.90
54614;DHT22;40514;52.758;6.360;2022-11-30T17:31:03;7.20;99.90
54614;DHT22;40514;52.758;6.360;2022-11-30T17:33:33;7.20;99.90
54614;DHT22;40514;52.758;6.360;2022-11-30T17:36:01;7.20;99.90
54614;DHT22;40514;52.758;6.360;2022-11-30T17:38:27;7.20;99.90
54614;DHT22;40514;52.758;6.360;2022-11-30T17:40:53;7.20;99.90